Time;durP1;ratioP1;P1;durP2;ratioP2;P2;SDS_P1;SDS_P2;PMS_P1;PMS_P2;Temp;Humidity;BMP_temperature;BMP_pressure;BME280_temperature;BME280_humidity;BME280_pressure;Samples;Min_cycle;Max_cycle;Signal;HPM_P1;HPM_P2
2022/01/09 00:00:17;;;;;;;;;;;;;;;16.50;48.78;98948.38;5039386;28;20119;-40
2022/01/09 00:02:44;;;;;;;;;;;;;;;16.50;48.37;98954.53;5038594;28;20329;-42
2022/01/09 00:05:11;;;;;;;;;;;;;;;16.49;49.27;98958.25;5039283;28;19931;-42
2022/01/09 00:07:37;;;;;;;;;;;;;;;16.49;48.95;98954.75;5041016;28;19933;-41
2022/01/09 00:10:05;;;;;;;;;;;;;;;16.49;49.37;98965.44;5040022;28;19933;-42
2022/01/09 00:12:31;;;;;;;;;;;;;;;16.47;48.68;98970.97;5042900;28;20035;-42
2022/01/09 00:14:58;;;;;;;;;;;;;;;16.46;49.29;98977.34;5039410;28;19929;-42
2022/01/09 00:17:24;;;;;;;;;;;;;;;16.48;48.94;98969.09;5037606;28;20331;-42
2022/01/09 00:19:51;;;;;;;;;;;;;;;16.47;49.36;98978.97;5042207;28;20375;-44
2022/01/09 00:22:22;;;;;;;;;;;;;;;16.47;48.67;98995.03;5040136;28;20015;-42
2022/01/09 00:24:48;;;;;;;;;;;;;;;16.47;49.56;98996.88;5039609;28;19929;-41
2022/01/09 00:27:14;;;;;;;;;;;;;;;16.47;49.62;99004.91;5039135;28;19932;-41
2022/01/09 00:29:41;;;;;;;;;;;;;;;16.47;49.40;99010.25;5039071;28;19925;-42
2022/01/09 00:32:07;;;;;;;;;;;;;;;16.46;49.51;99017.44;5037480;28;19929;-46
2022/01/09 00:34:34;;;;;;;;;;;;;;;16.46;49.53;99022.78;5039739;28;20555;-42
2022/01/09 00:37:00;;;;;;;;;;;;;;;16.45;49.78;99015.78;5034534;28;19931;-42
2022/01/09 00:39:26;;;;;;;;;;;;;;;16.46;48.91;99030.00;5041780;28;19951;-41
2022/01/09 00:41:53;;;;;;;;;;;;;;;16.45;49.06;99034.50;5041166;28;19925;-42
2022/01/09 00:44:19;;;;;;;;;;;;;;;16.45;49.63;99039.03;5042552;28;19931;-42
2022/01/09 00:46:45;;;;;;;;;;;;;;;16.44;49.52;99038.22;5042264;28;19947;-42
2022/01/09 00:49:12;;;;;;;;;;;;;;;16.45;49.41;99047.06;5042639;28;20012;-43
2022/01/09 00:51:38;;;;;;;;;;;;;;;16.44;49.82;99056.94;5040943;28;20008;-42
2022/01/09 00:54:05;;;;;;;;;;;;;;;16.42;48.81;99061.63;5047767;28;20012;-42
2022/01/09 00:56:31;;;;;;;;;;;;;;;16.43;48.70;99059.78;5042294;28;19929;-42
2022/01/09 00:58:57;;;;;;;;;;;;;;;16.42;48.94;99066.16;5045438;28;19939;-42
2022/01/09 01:01:24;;;;;;;;;;;;;;;16.43;49.72;99075.81;5045764;28;19939;-42
2022/01/09 01:03:50;;;;;;;;;;;;;;;16.40;49.88;99082.38;5047380;28;19935;-41
2022/01/09 01:06:17;;;;;;;;;;;;;;;16.42;49.58;99085.69;5042271;28;19933;-42
2022/01/09 01:08:43;;;;;;;;;;;;;;;16.42;49.19;99098.22;5043157;28;19925;-42
2022/01/09 01:11:09;;;;;;;;;;;;;;;16.41;49.39;99100.09;5044701;28;20000;-42
2022/01/09 01:13:36;;;;;;;;;;;;;;;16.41;49.37;99096.59;5044188;28;20309;-42
2022/01/09 01:16:02;;;;;;;;;;;;;;;16.40;50.01;99108.25;5046623;28;19924;-42
2022/01/09 01:18:29;;;;;;;;;;;;;;;16.40;49.73;99103.78;5045908;28;20019;-42
2022/01/09 01:20:55;;;;;;;;;;;;;;;16.38;49.05;99111.13;5046399;28;19937;-42
2022/01/09 01:23:21;;;;;;;;;;;;;;;16.39;49.27;99118.13;5044840;28;19929;-42
2022/01/09 01:25:51;;;;;;;;;;;;;;;16.38;50.23;99129.03;5043941;28;19932;-41
2022/01/09 01:28:18;;;;;;;;;;;;;;;16.39;50.24;99136.84;5047180;28;20020;-42
2022/01/09 01:30:45;;;;;;;;;;;;;;;16.39;49.70;99141.38;5043002;28;19931;-42
2022/01/09 01:33:11;;;;;;;;;;;;;;;16.38;49.31;99145.91;5043825;28;19925;-41
2022/01/09 01:35:38;;;;;;;;;;;;;;;16.37;49.89;99152.25;5049781;28;19936;-42
2022/01/09 01:38:04;;;;;;;;;;;;;;;16.36;50.03;99161.31;5044883;28;19925;-43
2022/01/09 01:40:30;;;;;;;;;;;;;;;16.37;50.21;99165.63;5045916;28;19929;-42
2022/01/09 01:42:57;;;;;;;;;;;;;;;16.36;50.11;99176.50;5047009;28;20489;-42
2022/01/09 01:45:23;;;;;;;;;;;;;;;16.37;49.53;99184.34;5047370;28;19931;-43
2022/01/09 01:47:49;;;;;;;;;;;;;;;16.36;49.17;99193.41;5045689;28;19929;-43
2022/01/09 01:50:16;;;;;;;;;;;;;;;16.35;49.67;99190.88;5048420;28;19994;-43
2022/01/09 01:52:46;;;;;;;;;;;;;;;16.35;50.11;99204.25;5046208;28;20240;-42
2022/01/09 01:55:14;;;;;;;;;;;;;;;16.34;49.61;99205.28;5046212;28;19929;-43
2022/01/09 01:57:42;;;;;;;;;;;;;;;16.33;49.12;99196.44;5047006;28;19924;-43
2022/01/09 02:00:11;;;;;;;;;;;;;;;16.34;49.55;99205.28;5044440;28;19939;-41
2022/01/09 02:02:38;;;;;;;;;;;;;;;16.32;50.00;99208.09;5045790;28;20023;-41
2022/01/09 02:05:05;;;;;;;;;;;;;;;16.33;49.61;99225.00;5042015;28;19956;-42
2022/01/09 02:07:31;;;;;;;;;;;;;;;16.33;50.06;99225.84;5044331;28;19925;-40
2022/01/09 02:09:58;;;;;;;;;;;;;;;16.33;50.40;99227.69;5047372;28;19939;-42
2022/01/09 02:12:24;;;;;;;;;;;;;;;16.32;49.47;99234.84;5045029;28;19925;-42
2022/01/09 02:14:50;;;;;;;;;;;;;;;16.32;50.11;99231.34;5043526;28;21028;-42
2022/01/09 02:17:18;;;;;;;;;;;;;;;16.32;50.24;99234.84;5046444;28;19951;-42
2022/01/09 02:19:57;;;;;;;;;;;;;;;16.31;50.12;99240.38;5047571;28;19939;-42
2022/01/09 02:22:27;;;;;;;;;;;;;;;16.31;50.27;99241.22;5046124;28;19932;-42
2022/01/09 02:24:53;;;;;;;;;;;;;;;16.28;49.51;99261.16;5044810;28;19947;-42
2022/01/09 02:27:19;;;;;;;;;;;;;;;16.29;49.78;99260.13;5042199;28;20342;-42
2022/01/09 02:29:46;;;;;;;;;;;;;;;16.27;49.64;99256.78;5044415;28;19939;-42
2022/01/09 02:32:16;;;;;;;;;;;;;;;16.30;49.75;99274.31;5045225;28;19925;-42
2022/01/09 02:34:47;;;;;;;;;;;;;;;16.29;50.25;99272.66;5040701;28;19925;-42
2022/01/09 02:37:13;;;;;;;;;;;;;;;16.27;50.32;99286.19;5046660;28;19948;-42
2022/01/09 02:39:39;;;;;;;;;;;;;;;16.28;50.63;99295.03;5039432;28;20232;-44
2022/01/09 02:42:16;;;;;;;;;;;;;;;16.26;50.32;99303.25;5047143;28;20360;-42
2022/01/09 02:44:43;;;;;;;;;;;;;;;16.26;49.66;99297.91;5044050;28;19925;-42
2022/01/09 02:47:10;;;;;;;;;;;;;;;16.26;49.62;99299.75;5046689;28;20447;-42
2022/01/09 02:49:36;;;;;;;;;;;;;;;16.26;49.71;99307.78;5043670;28;20606;-42
2022/01/09 02:52:11;;;;;;;;;;;;;;;16.25;49.77;99319.47;5048334;28;19933;-42
2022/01/09 02:57:22;;;;;;;;;;;;;;;16.24;50.14;99331.16;5045414;28;19931;-42
2022/01/09 02:59:49;;;;;;;;;;;;;;;16.25;50.42;99328.31;5041987;28;19978;-42
2022/01/09 03:02:20;;;;;;;;;;;;;;;16.24;49.70;99336.50;5051686;28;20260;-42
2022/01/09 03:04:46;;;;;;;;;;;;;;;16.24;50.61;99336.50;5042923;28;19988;-42
2022/01/09 03:07:13;;;;;;;;;;;;;;;16.23;50.19;99351.72;5042529;28;20024;-42
2022/01/09 03:09:39;;;;;;;;;;;;;;;16.22;49.82;99357.25;5043924;28;20214;-42
2022/01/09 03:12:11;;;;;;;;;;;;;;;16.21;49.57;99361.78;5043402;28;20320;-42
2022/01/09 03:14:38;;;;;;;;;;;;;;;16.22;50.16;99358.09;5042785;28;20398;-42
2022/01/09 03:17:05;;;;;;;;;;;;;;;16.22;50.33;99365.28;5041169;28;20367;-42
2022/01/09 03:19:31;;;;;;;;;;;;;;;16.21;49.91;99372.47;5038846;28;20062;-42
2022/01/09 03:21:57;;;;;;;;;;;;;;;16.21;50.56;99383.16;5040371;28;19933;-42
2022/01/09 03:24:24;;;;;;;;;;;;;;;16.22;50.70;99394.69;5045890;28;19925;-42
2022/01/09 03:26:50;;;;;;;;;;;;;;;16.19;49.96;99392.34;5042721;28;19936;-42
2022/01/09 03:29:16;;;;;;;;;;;;;;;16.20;49.90;99394.88;5040879;28;20325;-41
2022/01/09 03:31:43;;;;;;;;;;;;;;;16.19;50.85;99400.38;5045348;28;21470;-42
2022/01/09 03:34:09;;;;;;;;;;;;;;;16.19;50.52;99401.19;5039785;28;20343;-42
2022/01/09 03:36:35;;;;;;;;;;;;;;;16.18;50.34;99409.41;5042928;28;20259;-42
2022/01/09 03:39:02;;;;;;;;;;;;;;;16.17;50.29;99408.59;5045362;28;20228;-42
2022/01/09 03:41:28;;;;;;;;;;;;;;;16.18;49.83;99414.75;5044240;28;19928;-42
2022/01/09 03:43:55;;;;;;;;;;;;;;;16.18;50.73;99431.63;5045386;28;19936;-43
2022/01/09 03:46:21;;;;;;;;;;;;;;;16.17;50.69;99424.63;5046969;28;19928;-42
2022/01/09 03:48:47;;;;;;;;;;;;;;;16.16;50.60;99439.00;5043522;28;19925;-42
2022/01/09 03:51:14;;;;;;;;;;;;;;;16.15;50.10;99426.63;5041719;28;19925;-43
2022/01/09 03:53:40;;;;;;;;;;;;;;;16.15;50.39;99434.63;5043252;28;19925;-43
2022/01/09 03:56:07;;;;;;;;;;;;;;;16.15;50.52;99437.31;5041086;28;20241;-42
2022/01/09 03:58:35;;;;;;;;;;;;;;;16.15;50.53;99444.50;5044191;28;20041;-42
2022/01/09 04:01:08;;;;;;;;;;;;;;;16.15;50.73;99448.00;5045314;28;20235;-42
2022/01/09 04:03:35;;;;;;;;;;;;;;;16.14;50.66;99445.53;5042852;28;20381;-42
2022/01/09 04:06:02;;;;;;;;;;;;;;;16.13;50.29;99451.88;5041190;28;20360;-42
2022/01/09 04:08:29;;;;;;;;;;;;;;;16.13;50.70;99471.41;5042923;28;20003;-41
2022/01/09 04:10:55;;;;;;;;;;;;;;;16.12;49.95;99468.91;5041326;28;19925;-42
2022/01/09 04:13:22;;;;;;;;;;;;;;;16.12;50.52;99469.75;5044028;28;20549;-42
2022/01/09 04:15:49;;;;;;;;;;;;;;;16.11;50.54;99478.75;5044335;28;20280;-42
2022/01/09 04:18:16;;;;;;;;;;;;;;;16.12;49.74;99485.81;5043089;28;20460;-42
2022/01/09 04:20:43;;;;;;;;;;;;;;;16.10;50.12;99482.47;5044059;28;19925;-42
2022/01/09 04:23:11;;;;;;;;;;;;;;;16.10;49.69;99493.16;5041881;28;19925;-43
2022/01/09 04:25:41;;;;;;;;;;;;;;;16.10;50.46;99495.00;5044609;28;20301;-42
2022/01/09 04:28:08;;;;;;;;;;;;;;;16.09;50.50;99502.19;5051522;28;19925;-42
2022/01/09 04:30:35;;;;;;;;;;;;;;;16.08;50.46;99497.84;5044570;28;19935;-42
2022/01/09 04:33:01;;;;;;;;;;;;;;;16.08;50.87;99505.88;5048217;28;20006;-41
2022/01/09 04:35:28;;;;;;;;;;;;;;;16.08;50.61;99505.88;5047080;28;19929;-41
2022/01/09 04:37:55;;;;;;;;;;;;;;;16.08;50.51;99513.03;5047658;28;20336;-41
2022/01/09 04:40:21;;;;;;;;;;;;;;;16.08;49.73;99519.22;5047840;28;21523;-42
2022/01/09 04:42:54;;;;;;;;;;;;;;;16.07;49.78;99519.38;5049752;28;19935;-42
2022/01/09 04:45:23;;;;;;;;;;;;;;;16.07;50.55;99535.41;5047710;28;19939;-42
2022/01/09 04:47:51;;;;;;;;;;;;;;;16.06;49.85;99539.09;5049127;28;19952;-42
2022/01/09 04:50:27;;;;;;;;;;;;;;;16.06;50.07;99534.59;5045318;28;19929;-42
2022/01/09 04:52:59;;;;;;;;;;;;;;;16.07;49.81;99551.47;5042423;28;21074;-42
2022/01/09 04:55:26;;;;;;;;;;;;;;;16.05;50.49;99551.63;5045111;28;19924;-42
2022/01/09 04:57:52;;;;;;;;;;;;;;;16.07;50.39;99554.13;5048816;28;19968;-41
2022/01/09 05:00:19;;;;;;;;;;;;;;;16.05;50.52;99565.00;5048897;28;19940;-42
2022/01/09 05:02:45;;;;;;;;;;;;;;;16.05;50.75;99570.34;5040996;28;19933;-42
2022/01/09 05:05:12;;;;;;;;;;;;;;;16.05;50.30;99573.03;5048183;28;20008;-42
2022/01/09 05:07:38;;;;;;;;;;;;;;;16.04;49.75;99574.88;5045926;28;19932;-42
2022/01/09 05:10:05;;;;;;;;;;;;;;;16.04;49.78;99592.75;5049583;28;19933;-42
2022/01/09 05:12:32;;;;;;;;;;;;;;;16.04;49.79;99585.56;5044749;28;19929;-42
2022/01/09 05:14:58;;;;;;;;;;;;;;;16.03;50.05;99597.22;5048261;28;19928;-42
2022/01/09 05:17:25;;;;;;;;;;;;;;;16.03;49.78;99602.56;5048995;28;19971;-42
2022/01/09 05:19:53;;;;;;;;;;;;;;;16.03;49.73;99610.59;5044473;28;19933;-41
2022/01/09 05:22:19;;;;;;;;;;;;;;;16.04;50.31;99619.47;5046392;28;20021;-42
2022/01/09 05:24:45;;;;;;;;;;;;;;;16.03;50.42;99618.59;5051576;28;20358;-42
2022/01/09 05:27:12;;;;;;;;;;;;;;;16.02;49.76;99618.78;5043820;28;20400;-42
2022/01/09 05:29:38;;;;;;;;;;;;;;;16.02;50.06;99624.97;5041442;28;20011;-40
2022/01/09 05:32:05;;;;;;;;;;;;;;;16.02;49.75;99632.97;5049599;28;19935;-42
2022/01/09 05:34:31;;;;;;;;;;;;;;;16.02;49.94;99629.47;5043139;28;19924;-42
2022/01/09 05:36:58;;;;;;;;;;;;;;;16.02;50.57;99640.16;5047417;28;19933;-41
2022/01/09 05:39:24;;;;;;;;;;;;;;;16.01;50.58;99636.66;5043079;28;20383;-41
2022/01/09 05:41:51;;;;;;;;;;;;;;;16.00;50.88;99648.38;5043307;28;19925;-41
2022/01/09 05:44:18;;;;;;;;;;;;;;;15.98;50.24;99644.19;5049771;28;20345;-41
2022/01/09 05:46:45;;;;;;;;;;;;;;;15.98;49.75;99644.19;5045431;28;20001;-42
2022/01/09 05:49:13;;;;;;;;;;;;;;;15.98;50.45;99646.84;5043898;28;20038;-41
2022/01/09 05:51:39;;;;;;;;;;;;;;;15.97;50.56;99654.03;5046851;28;19925;-41
2022/01/09 05:54:06;;;;;;;;;;;;;;;15.96;49.77;99652.38;5045691;28;19931;-42
2022/01/09 05:56:32;;;;;;;;;;;;;;;15.95;49.94;99661.38;5042161;28;20248;-42
2022/01/09 05:58:58;;;;;;;;;;;;;;;15.95;50.02;99660.56;5042881;28;19935;-42
2022/01/09 06:01:25;;;;;;;;;;;;;;;15.94;49.84;99675.75;5045082;28;19931;-41
2022/01/09 06:03:51;;;;;;;;;;;;;;;15.94;50.71;99669.59;5044202;28;20299;-43
2022/01/09 06:06:18;;;;;;;;;;;;;;;15.93;49.97;99671.41;5039763;28;19929;-43
2022/01/09 06:08:45;;;;;;;;;;;;;;;15.92;49.95;99688.47;5046471;28;19925;-42
2022/01/09 06:11:11;;;;;;;;;;;;;;;15.93;50.37;99692.81;5045540;28;19929;-43
2022/01/09 06:13:37;;;;;;;;;;;;;;;15.91;50.35;99697.47;5043416;28;19929;-43
2022/01/09 06:16:04;;;;;;;;;;;;;;;15.92;50.79;99707.16;5043150;28;19925;-43
2022/01/09 06:18:30;;;;;;;;;;;;;;;15.92;50.77;99698.28;5036841;28;20445;-43
2022/01/09 06:20:57;;;;;;;;;;;;;;;15.92;50.77;99706.31;5046774;28;20229;-44
2022/01/09 06:23:23;;;;;;;;;;;;;;;15.90;49.90;99711.00;5046210;28;19933;-43
2022/01/09 06:25:53;;;;;;;;;;;;;;;15.90;50.92;99703.00;5042887;28;19925;-42
2022/01/09 06:28:20;;;;;;;;;;;;;;;15.88;50.06;99716.53;5050305;28;20028;-42
2022/01/09 06:30:46;;;;;;;;;;;;;;;15.89;50.26;99717.34;5041350;28;19933;-42
2022/01/09 06:33:13;;;;;;;;;;;;;;;15.88;50.49;99726.34;5044099;28;19925;-43
2022/01/09 06:35:39;;;;;;;;;;;;;;;15.88;49.86;99735.22;5042906;28;20043;-42
2022/01/09 06:38:07;;;;;;;;;;;;;;;15.87;50.76;99730.88;5039532;28;19928;-42
2022/01/09 06:40:34;;;;;;;;;;;;;;;15.87;50.39;99740.72;5044502;28;19929;-42
2022/01/09 06:43:00;;;;;;;;;;;;;;;15.86;50.02;99739.06;5045359;28;20356;-42
2022/01/09 06:45:27;;;;;;;;;;;;;;;15.85;50.88;99746.25;5040654;28;19932;-42
2022/01/09 06:47:54;;;;;;;;;;;;;;;15.86;50.75;99741.72;5044385;28;19925;-42
2022/01/09 06:50:21;;;;;;;;;;;;;;;15.85;50.86;99748.09;5043095;28;19929;-43
2022/01/09 06:52:48;;;;;;;;;;;;;;;15.83;50.41;99756.25;5043165;28;19939;-42
2022/01/09 06:55:15;;;;;;;;;;;;;;;15.83;50.65;99750.06;5044407;28;19928;-42
2022/01/09 06:57:41;;;;;;;;;;;;;;;15.84;50.22;99765.09;5046618;28;19935;-43
2022/01/09 07:00:10;;;;;;;;;;;;;;;15.83;49.87;99766.94;5042434;28;19933;-43
2022/01/09 07:02:37;;;;;;;;;;;;;;;15.82;49.90;99762.59;5045384;28;19932;-43
2022/01/09 07:05:04;;;;;;;;;;;;;;;15.82;50.62;99777.78;5044075;28;19940;-43
2022/01/09 07:07:30;;;;;;;;;;;;;;;15.83;50.43;99790.16;5045280;28;20056;-43
2022/01/09 07:09:58;;;;;;;;;;;;;;;15.83;49.89;99790.16;5041844;28;19933;-43
2022/01/09 07:12:24;;;;;;;;;;;;;;;15.88;49.86;99799.34;5043710;28;19948;-42
2022/01/09 07:14:51;;;;;;;;;;;;;;;15.95;50.58;99792.31;5041146;28;19964;-43
2022/01/09 07:17:17;;;;;;;;;;;;;;;16.03;50.53;99796.84;5044893;28;19928;-43
2022/01/09 07:19:43;;;;;;;;;;;;;;;16.13;49.98;99796.69;5040331;28;19929;-42
2022/01/09 07:22:10;;;;;;;;;;;;;;;16.21;49.80;99802.88;5042567;28;19943;-42
2022/01/09 07:24:36;;;;;;;;;;;;;;;16.32;49.29;99806.19;5044716;28;20066;-42
2022/01/09 07:27:03;;;;;;;;;;;;;;;16.43;49.46;99814.72;5043430;28;19925;-42
2022/01/09 07:29:29;;;;;;;;;;;;;;;16.53;49.37;99819.91;5044484;28;19979;-44
2022/01/09 07:31:56;;;;;;;;;;;;;;;16.63;49.31;99817.88;5042855;28;20239;-43
2022/01/09 07:34:22;;;;;;;;;;;;;;;16.73;49.53;99829.28;5042942;28;20231;-43
2022/01/09 07:36:48;;;;;;;;;;;;;;;16.81;49.12;99832.97;5043202;28;19955;-43
2022/01/09 07:39:15;;;;;;;;;;;;;;;16.88;48.70;99836.59;5042075;28;19928;-43
2022/01/09 07:41:42;;;;;;;;;;;;;;;16.93;48.68;99821.72;5039875;28;20058;-43
2022/01/09 07:44:08;;;;;;;;;;;;;;;16.97;48.39;99838.28;5043260;28;19925;-43
2022/01/09 07:46:34;;;;;;;;;;;;;;;17.01;49.03;99835.06;5042870;28;19931;-43
2022/01/09 07:49:01;;;;;;;;;;;;;;;17.02;48.37;99851.97;5042853;28;19948;-43
2022/01/09 07:51:28;;;;;;;;;;;;;;;17.04;48.40;99849.94;5043618;28;20529;-42
2022/01/09 07:54:14;;;;;;;;;;;;;;;17.02;48.10;99852.81;5043184;28;19924;-43
2022/01/09 07:56:40;;;;;;;;;;;;;;;17.00;47.92;99846.78;5041190;28;19939;-42
2022/01/09 07:59:07;;;;;;;;;;;;;;;16.97;48.71;99854.34;5057634;28;19935;-42
2022/01/09 08:01:33;;;;;;;;;;;;;;;16.94;48.35;99858.16;5045307;28;19947;-43
2022/01/09 08:04:00;;;;;;;;;;;;;;;16.91;48.20;99857.66;5038179;28;19929;-42
2022/01/09 08:06:26;;;;;;;;;;;;;;;16.88;49.10;99863.34;5040378;28;19925;-41
2022/01/09 08:08:53;;;;;;;;;;;;;;;16.84;48.45;99859.34;5042268;28;19925;-42
2022/01/09 08:11:22;;;;;;;;;;;;;;;16.80;48.88;99861.53;5040702;28;20388;-41
2022/01/09 08:13:48;;;;;;;;;;;;;;;16.77;48.56;99880.63;5039343;28;20375;-41
2022/01/09 08:16:15;;;;;;;;;;;;;;;16.74;48.41;99876.44;5040662;28;19936;-43
2022/01/09 08:18:42;;;;;;;;;;;;;;;16.73;48.38;99882.78;5042749;28;19925;-43
2022/01/09 08:21:08;;;;;;;;;;;;;;;16.69;48.53;99883.28;5039693;28;19929;-42
2022/01/09 08:23:36;;;;;;;;;;;;;;;16.68;49.15;99886.94;5042760;28;20348;-42
2022/01/09 08:26:02;;;;;;;;;;;;;;;16.65;48.47;99889.97;5039807;28;20387;-42
2022/01/09 08:28:29;;;;;;;;;;;;;;;16.64;48.50;99899.81;5042444;28;19978;-43
2022/01/09 08:30:56;;;;;;;;;;;;;;;16.61;49.49;99902.84;5038579;28;19933;-43
2022/01/09 08:33:24;;;;;;;;;;;;;;;16.60;48.61;99911.84;5039066;28;20012;-43
2022/01/09 08:35:51;;;;;;;;;;;;;;;16.57;48.59;99917.56;5041269;28;19929;-43
2022/01/09 08:38:20;;;;;;;;;;;;;;;16.57;48.92;99919.41;5035995;28;20008;-42
2022/01/09 08:40:47;;;;;;;;;;;;;;;16.56;48.79;99920.38;5041374;28;20284;-42
2022/01/09 08:43:13;;;;;;;;;;;;;;;16.53;48.69;99926.91;5038117;28;19924;-42
2022/01/09 08:45:39;;;;;;;;;;;;;;;16.53;48.78;99924.25;5042437;28;19928;-42
2022/01/09 08:48:06;;;;;;;;;;;;;;;16.52;49.26;99925.22;5039144;28;20016;-42
2022/01/09 08:50:33;;;;;;;;;;;;;;;16.50;48.55;99933.41;5036121;28;19971;-42
2022/01/09 08:52:59;;;;;;;;;;;;;;;16.49;49.33;99938.94;5035181;28;19933;-42
2022/01/09 08:55:26;;;;;;;;;;;;;;;16.48;49.00;99934.56;5042731;28;19939;-42
2022/01/09 08:57:52;;;;;;;;;;;;;;;16.48;48.61;99945.28;5039331;28;19925;-43
2022/01/09 09:00:19;;;;;;;;;;;;;;;16.46;48.71;99948.13;5041101;28;19924;-43
2022/01/09 09:02:46;;;;;;;;;;;;;;;16.46;49.66;99955.31;5040612;28;20221;-43
2022/01/09 09:05:13;;;;;;;;;;;;;;;16.45;48.68;99961.69;5040791;28;20459;-42
2022/01/09 09:07:40;;;;;;;;;;;;;;;16.44;48.62;99962.66;5044463;28;19959;-42
2022/01/09 09:10:07;;;;;;;;;;;;;;;16.43;49.42;99953.78;5042280;28;20012;-43
2022/01/09 09:12:34;;;;;;;;;;;;;;;16.43;48.68;99963.66;5040456;28;20761;-42
2022/01/09 09:15:03;;;;;;;;;;;;;;;16.42;49.58;99962.00;5043230;28;20031;-42
2022/01/09 09:17:30;;;;;;;;;;;;;;;16.40;48.73;99959.50;5042235;28;19925;-43
2022/01/09 09:19:56;;;;;;;;;;;;;;;16.42;48.84;99972.69;5039494;28;19929;-42
2022/01/09 09:22:23;;;;;;;;;;;;;;;16.39;48.57;99973.84;5039155;28;19949;-42
2022/01/09 09:24:50;;;;;;;;;;;;;;;16.41;49.32;99979.06;5041289;28;19925;-41
2022/01/09 09:27:18;;;;;;;;;;;;;;;16.41;49.43;99984.41;5045566;28;19929;-42
2022/01/09 09:29:44;;;;;;;;;;;;;;;16.40;49.22;99990.72;5044086;28;19951;-42
2022/01/09 09:32:11;;;;;;;;;;;;;;;16.40;48.97;99988.06;5044547;28;20343;-41
2022/01/09 09:34:39;;;;;;;;;;;;;;;16.41;49.53;99987.91;5037855;28;19929;-42
2022/01/09 09:37:06;;;;;;;;;;;;;;;16.44;49.08;99998.28;5043613;28;20002;-41
2022/01/09 09:39:32;;;;;;;;;;;;;;;16.46;49.70;99995.44;5039204;28;20004;-42
2022/01/09 09:41:59;;;;;;;;;;;;;;;16.50;49.85;100002.97;5043669;28;20256;-42
2022/01/09 09:44:26;;;;;;;;;;;;;;;16.56;49.14;100005.97;5040667;28;20217;-40
2022/01/09 09:46:53;;;;;;;;;;;;;;;16.62;49.26;100008.84;5041006;28;20023;-40
2022/01/09 09:49:21;;;;;;;;;;;;;;;16.69;49.91;100012.53;5042001;28;20011;-40
2022/01/09 09:51:48;;;;;;;;;;;;;;;16.77;49.01;100019.78;5037595;28;19925;-40
2022/01/09 09:54:14;;;;;;;;;;;;;;;16.83;48.87;100016.41;5041131;28;19929;-41
2022/01/09 09:56:41;;;;;;;;;;;;;;;16.91;48.79;100018.28;5038020;28;20372;-42
2022/01/09 09:59:07;;;;;;;;;;;;;;;16.99;48.83;100026.31;5038433;28;20012;-40
2022/01/09 10:01:35;;;;;;;;;;;;;;;17.05;48.57;100031.00;5040608;28;19937;-41
2022/01/09 10:04:03;;;;;;;;;;;;;;;17.11;48.75;100035.69;5037805;28;20013;-41
2022/01/09 10:06:39;;;;;;;;;;;;;;;17.18;48.25;100030.50;5040959;28;19924;-42
2022/01/09 10:09:26;;;;;;;;;;;;;;;17.22;48.21;100027.31;5039982;28;20012;-44
2022/01/09 10:11:54;;;;;;;;;;;;;;;17.26;48.37;100022.47;5045530;28;19931;-42
2022/01/09 10:14:22;;;;;;;;;;;;;;;17.28;47.92;100031.16;5044416;28;20023;-43
2022/01/09 10:17:16;;;;;;;;;;;;;;;17.31;48.06;100036.16;5042845;28;19929;-41
2022/01/09 10:19:45;;;;;;;;;;;;;;;17.35;48.04;100031.31;5038167;28;20212;-43
2022/01/09 10:22:22;;;;;;;;;;;;;;;17.38;47.60;100041.69;5038991;28;20289;-42
2022/01/09 10:24:49;;;;;;;;;;;;;;;17.40;47.46;100050.38;5039772;28;19939;-42
2022/01/09 10:27:35;;;;;;;;;;;;;;;17.41;47.68;100044.88;5038121;28;19928;-43
2022/01/09 10:30:03;;;;;;;;;;;;;;;17.39;46.67;100054.06;5044032;28;20411;-41
2022/01/09 10:32:30;;;;;;;;;;;;;;;17.40;46.95;100064.63;5046768;28;19931;-42
2022/01/09 10:35:09;;;;;;;;;;;;;;;17.40;47.07;100075.31;5039044;28;19939;-41
2022/01/09 10:37:35;;;;;;;;;;;;;;;17.43;47.47;100068.81;5041160;28;20027;-41
2022/01/09 10:40:05;;;;;;;;;;;;;;;17.45;47.39;100061.47;5038743;28;20011;-42
2022/01/09 10:42:32;;;;;;;;;;;;;;;17.46;47.19;100074.66;5041634;28;19951;-42
2022/01/09 10:45:14;;;;;;;;;;;;;;;17.47;46.95;100070.97;5042751;28;19975;-42
2022/01/09 10:47:41;;;;;;;;;;;;;;;17.44;46.79;100068.63;5044126;28;19943;-43
2022/01/09 10:50:09;;;;;;;;;;;;;;;17.43;46.09;100079.53;5042426;28;19935;-42
2022/01/09 10:52:39;;;;;;;;;;;;;;;17.41;46.92;100068.16;5044102;28;19931;-42
2022/01/09 10:55:07;;;;;;;;;;;;;;;17.38;47.31;100072.00;5041361;28;20428;-42
2022/01/09 10:57:37;;;;;;;;;;;;;;;17.37;46.70;100074.84;5044380;28;19955;-42
2022/01/09 11:00:11;;;;;;;;;;;;;;;17.33;46.32;100074.34;5046603;28;19924;-43
2022/01/09 11:02:38;;;;;;;;;;;;;;;17.30;47.13;100073.84;5039098;28;20021;-43
2022/01/09 11:05:05;;;;;;;;;;;;;;;17.28;47.05;100066.78;5042685;28;19979;-42
2022/01/09 11:07:32;;;;;;;;;;;;;;;17.27;47.18;100077.69;5040697;28;20011;-42
2022/01/09 11:10:00;;;;;;;;;;;;;;;17.24;46.93;100086.88;5034789;28;20008;-41
2022/01/09 11:12:34;;;;;;;;;;;;;;;17.23;47.24;100084.38;5040904;28;20494;-42
2022/01/09 11:15:02;;;;;;;;;;;;;;;17.22;47.04;100090.75;5036556;28;19929;-43
2022/01/09 11:17:28;;;;;;;;;;;;;;;17.23;47.75;100087.88;5041124;28;20313;-43
2022/01/09 11:19:55;;;;;;;;;;;;;;;17.26;47.65;100082.22;5042415;28;20026;-42
2022/01/09 11:22:22;;;;;;;;;;;;;;;17.32;47.42;100090.56;5041477;28;19979;-41
2022/01/09 11:24:56;;;;;;;;;;;;;;;17.36;47.85;100095.41;5037271;28;19933;-42
2022/01/09 11:27:27;;;;;;;;;;;;;;;17.40;47.16;100095.94;5039344;28;19924;-43
2022/01/09 11:30:03;;;;;;;;;;;;;;;17.42;47.52;100102.81;5037289;28;20012;-43
2022/01/09 11:32:35;;;;;;;;;;;;;;;17.46;46.93;100116.69;5036698;28;20281;-41
2022/01/09 11:35:08;;;;;;;;;;;;;;;17.48;46.68;100103.97;5045126;28;19933;-40
2022/01/09 11:37:40;;;;;;;;;;;;;;;17.52;47.05;100122.22;5037755;28;19935;-42
2022/01/09 11:40:26;;;;;;;;;;;;;;;17.56;46.77;100125.38;5036523;28;19939;-44
2022/01/09 11:42:59;;;;;;;;;;;;;;;17.58;46.94;100131.44;5038157;28;19985;-44
2022/01/09 11:45:58;;;;;;;;;;;;;;;17.61;46.72;100132.91;5042008;28;20019;-41
2022/01/09 11:48:42;;;;;;;;;;;;;;;17.63;46.84;100134.44;5028899;28;19925;-42
2022/01/09 11:51:09;;;;;;;;;;;;;;;17.65;46.37;100137.81;5035020;28;20010;-42
2022/01/09 11:53:54;;;;;;;;;;;;;;;17.67;46.95;100151.03;5035777;28;20360;-41
2022/01/09 11:56:39;;;;;;;;;;;;;;;17.69;46.58;100154.38;5040252;28;19936;-41
2022/01/09 11:59:19;;;;;;;;;;;;;;;17.73;46.45;100161.09;5037469;28;20035;-42
2022/01/09 12:01:46;;;;;;;;;;;;;;;17.74;46.43;100147.53;5039506;28;20023;-42
2022/01/09 12:04:31;;;;;;;;;;;;;;;17.76;46.35;100153.56;5040221;28;19925;-42
2022/01/09 12:07:03;;;;;;;;;;;;;;;17.78;46.34;100158.75;5038507;28;19941;-43
2022/01/09 12:09:35;;;;;;;;;;;;;;;17.80;46.32;100156.72;5039258;28;20035;-44
2022/01/09 12:12:05;;;;;;;;;;;;;;;17.81;46.43;100160.25;5037966;28;19933;-43
2022/01/09 12:14:41;;;;;;;;;;;;;;;17.83;46.21;100168.97;5039882;28;20327;-42
2022/01/09 12:17:26;;;;;;;;;;;;;;;17.83;46.15;100168.97;5037529;28;20269;-42
2022/01/09 12:20:04;;;;;;;;;;;;;;;17.84;45.70;100176.00;5035675;28;19925;-44
2022/01/09 12:22:45;;;;;;;;;;;;;;;17.85;46.38;100174.97;5039280;28;19929;-42
2022/01/09 12:25:24;;;;;;;;;;;;;;;17.87;46.19;100173.00;5040214;28;20830;-42
2022/01/09 12:27:54;;;;;;;;;;;;;;;17.88;46.14;100180.00;5040617;28;19963;-41
2022/01/09 12:30:30;;;;;;;;;;;;;;;17.90;45.98;100178.84;5038532;28;20320;-43
2022/01/09 12:32:56;;;;;;;;;;;;;;;17.91;46.33;100180.53;5037604;28;20028;-42
2022/01/09 12:35:23;;;;;;;;;;;;;;;17.93;46.05;100185.69;5042891;28;19929;-42
2022/01/09 12:37:53;;;;;;;;;;;;;;;17.95;46.03;100184.53;5037062;28;20317;-43
2022/01/09 12:40:20;;;;;;;;;;;;;;;17.96;45.78;100193.41;5038139;28;19929;-42
2022/01/09 12:42:50;;;;;;;;;;;;;;;17.97;45.88;100189.75;5035261;28;20438;-43
2022/01/09 12:45:21;;;;;;;;;;;;;;;17.98;45.73;100191.41;5040539;28;19941;-43
2022/01/09 12:47:47;;;;;;;;;;;;;;;17.99;46.22;100198.44;5040812;28;19929;-43
2022/01/09 12:50:14;;;;;;;;;;;;;;;18.00;45.99;100195.59;5037854;28;20028;-43
2022/01/09 12:52:41;;;;;;;;;;;;;;;18.01;46.10;100191.09;5039602;28;20008;-42